Time;durP1;ratioP1;P1;durP2;ratioP2;P2;SDS_P1;SDS_P2;PMS_P1;PMS_P2;Temp;Humidity;BMP_temperature;BMP_pressure;BME280_temperature;BME280_humidity;BME280_pressure;Samples;Min_cycle;Max_cycle;Signal;HPM_P1;HPM_P2
2023/01/17 00:02:06;;;;;;;1.58;1.48;;;;;;;3.72;81.45;95175.03;4971301;28;20089;-81
2023/01/17 00:10:12;;;;;;;1.20;1.10;;;;;;;3.63;79.99;95189.31;4989748;28;20057;-80
2023/01/17 00:12:38;;;;;;;1.30;1.13;;;;;;;3.62;79.59;95192.16;4988908;28;20410;-81
2023/01/17 00:15:05;;;;;;;1.60;1.13;;;;;;;3.56;79.20;95199.03;4989193;28;20046;-81
2023/01/17 00:17:31;;;;;;;1.38;1.27;;;;;;;3.53;79.13;95199.47;4989991;28;20117;-81
2023/01/17 01:35:27;;;;;;;1.50;1.23;;;;;;;3.21;75.38;95269.72;4992359;28;20096;-80
2023/01/17 01:37:53;;;;;;;1.25;1.15;;;;;;;3.18;74.45;95274.59;4992495;28;20042;-81
2023/01/17 01:40:19;;;;;;;1.67;1.35;;;;;;;3.17;73.74;95262.63;4992621;28;20466;-80
2023/01/17 01:42:58;;;;;;;0.80;0.80;;;;;;;3.11;73.07;95263.50;4990993;28;20045;-80
2023/01/17 01:45:31;;;;;;;2.28;1.55;;;;;;;3.15;72.20;95275.00;4992254;28;20102;-80
2023/01/17 01:48:17;;;;;;;1.60;1.50;;;;;;;3.10;72.07;95278.25;4991323;28;20034;-80
2023/01/17 01:50:42;;;;;;;1.13;1.02;;;;;;;3.07;73.30;95283.09;4990428;28;20069;-81
2023/01/17 01:53:09;;;;;;;1.25;1.10;;;;;;;3.06;71.87;95281.50;4991001;28;20061;-81
2023/01/17 01:55:40;;;;;;;1.35;1.25;;;;;;;3.01;71.82;95294.34;4992067;28;20501;-80
2023/01/17 01:58:17;;;;;;;1.83;1.30;;;;;;;3.08;71.18;95279.50;4990534;28;20034;-81
2023/01/17 02:00:42;;;;;;;3.15;1.40;;;;;;;3.10;71.53;95295.59;4990937;28;20072;-81
2023/01/17 02:03:16;;;;;;;1.25;1.15;;;;;;;3.12;71.32;95290.97;4991415;28;20446;-80
2023/01/17 02:05:42;;;;;;;1.80;1.33;;;;;;;3.17;70.94;95289.31;4991935;28;20046;-80
2023/01/17 02:08:15;;;;;;;1.92;0.90;;;;;;;3.20;71.74;95293.28;4991504;28;20034;-80
2023/01/17 02:10:42;;;;;;;1.17;0.90;;;;;;;3.18;72.45;95290.13;4991206;28;20034;-80
2023/01/17 02:13:10;;;;;;;2.13;1.25;;;;;;;3.23;71.89;95287.63;4991483;28;20034;-81
2023/01/17 02:15:59;;;;;;;1.95;1.02;;;;;;;3.23;72.50;95292.81;4991550;28;20050;-81
2023/01/17 02:18:37;;;;;;;1.25;1.20;;;;;;;3.26;72.09;95292.38;4991543;28;20061;-80
2023/01/17 02:21:36;;;;;;;1.95;1.45;;;;;;;3.30;72.04;95298.72;4991025;28;20399;-80
2023/01/17 02:24:29;;;;;;;2.45;1.70;;;;;;;3.29;72.13;95283.38;4991288;28;20030;-80
2023/01/17 02:27:26;;;;;;;1.58;1.25;;;;;;;3.20;72.91;95288.09;4990408;28;20031;-81
2023/01/17 02:30:31;;;;;;;1.45;1.35;;;;;;;3.23;72.76;95298.00;4990857;28;20068;-81
2023/01/17 02:33:15;;;;;;;1.35;1.25;;;;;;;3.23;72.68;95295.41;4989137;28;20026;-80
2023/01/17 02:36:07;;;;;;;1.60;1.50;;;;;;;3.20;72.91;95290.69;4990724;28;20046;-80
2023/01/17 02:38:43;;;;;;;2.78;1.38;;;;;;;3.22;73.83;95296.41;4991269;28;20088;-81
2023/01/17 02:41:20;;;;;;;2.95;1.58;;;;;;;3.22;73.25;95292.03;4989760;28;20049;-81
2023/01/17 02:43:50;;;;;;;2.72;1.65;;;;;;;3.19;73.58;95286.53;4990921;28;20089;-81
2023/01/17 02:46:15;;;;;;;2.47;1.30;;;;;;;3.26;73.55;95307.13;4991363;28;20026;-81
2023/01/17 02:48:43;;;;;;;3.13;2.00;;;;;;;3.16;72.62;95313.63;4991044;28;20046;-81
2023/01/17 02:51:47;;;;;;;2.53;1.85;;;;;;;3.11;72.39;95326.44;4972785;28;20034;-80
2023/01/17 02:55:00;;;;;;;1.58;1.00;;;;;;;3.05;73.28;95305.81;4990246;28;20030;-81
2023/01/17 02:58:05;;;;;;;2.50;2.05;;;;;;;2.98;72.28;95297.34;4990869;28;20026;-79
2023/01/17 03:00:55;;;;;;;4.18;1.70;;;;;;;2.92;72.43;95284.28;4990325;28;20050;-80
2023/01/17 03:03:38;;;;;;;1.70;1.60;;;;;;;2.90;71.77;95293.28;4990260;28;20800;-81
2023/01/17 03:06:22;;;;;;;1.90;1.42;;;;;;;2.88;71.41;95296.09;4990093;28;20030;-80
2023/01/17 03:08:50;;;;;;;2.05;1.85;;;;;;;2.90;71.10;95304.44;4990912;28;20497;-80
2023/01/17 03:11:16;;;;;;;2.15;1.95;;;;;;;2.88;71.50;95310.84;4990806;28;20100;-80
2023/01/17 03:13:42;;;;;;;1.33;1.23;;;;;;;2.91;72.11;95312.97;4990661;28;20046;-80
2023/01/17 03:16:20;;;;;;;1.73;1.40;;;;;;;2.89;71.21;95310.63;4990458;28;20042;-81
2023/01/17 03:18:46;;;;;;;2.50;1.58;;;;;;;2.91;71.41;95337.06;4990192;28;20049;-80
2023/01/17 03:21:12;;;;;;;1.73;1.63;;;;;;;2.90;70.10;95340.69;4990185;28;20038;-80
2023/01/17 03:23:37;;;;;;;3.28;1.77;;;;;;;2.89;69.93;95333.13;4987616;28;20093;-81
2023/01/17 03:26:03;;;;;;;4.00;1.88;;;;;;;2.88;70.33;95337.53;4990445;28;20030;-80
2023/01/17 03:28:29;;;;;;;1.65;1.55;;;;;;;2.86;70.16;95339.53;4990019;28;20042;-81
2023/01/17 03:30:54;;;;;;;3.10;2.03;;;;;;;2.88;70.11;95350.47;4989485;28;20041;-81
2023/01/17 03:33:20;;;;;;;2.15;1.70;;;;;;;2.89;71.54;95352.03;4990498;28;20034;-81
2023/01/17 03:35:46;;;;;;;2.00;1.75;;;;;;;2.84;70.48;95367.44;4990036;28;20065;-80
2023/01/17 03:38:12;;;;;;;1.33;1.23;;;;;;;2.82;71.14;95366.88;4989806;28;20502;-80
2023/01/17 03:40:37;;;;;;;6.68;1.52;;;;;;;2.81;71.13;95380.78;4989705;28;20117;-81
2023/01/17 03:43:03;;;;;;;2.80;2.20;;;;;;;2.77;70.67;95382.25;4990197;28;20134;-81
2023/01/17 03:45:28;;;;;;;3.20;1.92;;;;;;;2.77;70.36;95363.34;4990317;28;20117;-81
2023/01/17 03:47:55;;;;;;;2.03;1.80;;;;;;;2.76;70.15;95364.34;4990800;28;20113;-81
2023/01/17 03:50:21;;;;;;;3.15;1.92;;;;;;;2.74;69.51;95369.72;4990494;28;20035;-80
2023/01/17 03:52:47;;;;;;;2.40;1.35;;;;;;;2.72;70.05;95379.53;4988669;28;20034;-80
2023/01/17 03:55:12;;;;;;;4.53;2.40;;;;;;;2.72;69.17;95374.34;4989855;28;20105;-80
2023/01/17 03:57:38;;;;;;;3.42;2.03;;;;;;;2.75;69.94;95393.81;4989395;28;20034;-80
2023/01/17 04:00:04;;;;;;;4.30;2.35;;;;;;;2.66;69.48;95370.81;4990031;28;20038;-80
2023/01/17 04:02:30;;;;;;;2.97;2.15;;;;;;;2.65;70.08;95377.00;4988984;28;20096;-79
2023/01/17 04:04:55;;;;;;;3.50;2.22;;;;;;;2.64;69.31;95383.19;4989915;28;20053;-80
2023/01/17 04:07:21;;;;;;;4.20;2.47;;;;;;;2.67;69.73;95381.97;4989741;28;20033;-80
2023/01/17 04:09:47;;;;;;;2.40;1.67;;;;;;;2.65;68.81;95409.88;4989754;28;20120;-81
2023/01/17 04:12:13;;;;;;;2.55;1.88;;;;;;;2.67;69.58;95379.38;4989593;28;20490;-81
2023/01/17 04:14:39;;;;;;;4.45;2.10;;;;;;;2.66;68.34;95381.19;4988635;28;20077;-80
2023/01/17 04:17:08;;;;;;;2.47;1.80;;;;;;;2.71;67.75;95384.91;4989406;28;20041;-81
2023/01/17 04:19:35;;;;;;;3.03;2.00;;;;;;;2.66;67.45;95393.31;4989143;28;20940;-80
2023/01/17 04:22:01;;;;;;;4.47;2.30;;;;;;;2.60;67.58;95370.91;4986557;28;20042;-81
2023/01/17 04:24:26;;;;;;;3.15;1.80;;;;;;;2.67;67.27;95387.94;4988405;28;20033;-81
2023/01/17 04:26:52;;;;;;;1.75;1.63;;;;;;;2.72;67.94;95394.25;4989311;28;20121;-81
2023/01/17 04:29:17;;;;;;;2.63;1.95;;;;;;;2.75;67.67;95391.22;4988472;28;20069;-81
2023/01/17 04:31:43;;;;;;;4.68;1.80;;;;;;;2.76;67.88;95390.22;4989247;28;20049;-81
2023/01/17 04:34:08;;;;;;;4.53;1.77;;;;;;;2.76;67.53;95398.78;4989515;28;20080;-81
2023/01/17 04:36:34;;;;;;;3.72;1.35;;;;;;;2.73;67.90;95401.00;4989071;28;20031;-81
2023/01/17 04:38:59;;;;;;;2.22;1.50;;;;;;;2.80;68.53;95399.13;4989626;28;20034;-81
2023/01/17 04:41:25;;;;;;;3.53;1.65;;;;;;;2.78;69.48;95398.56;4989085;28;20065;-81
2023/01/17 04:43:50;;;;;;;3.80;2.67;;;;;;;2.66;68.59;95411.44;4987629;28;20607;-80
2023/01/17 04:46:16;;;;;;;1.98;1.63;;;;;;;2.61;70.10;95406.91;4989328;28;20041;-81
2023/01/17 04:48:41;;;;;;;3.13;1.63;;;;;;;2.62;70.44;95405.88;4989849;28;20502;-81
2023/01/17 04:51:07;;;;;;;2.55;2.35;;;;;;;2.52;69.93;95422.91;4973856;28;20433;-81
2023/01/17 04:53:32;;;;;;;1.92;1.80;;;;;;;2.54;71.13;95418.34;4994181;28;20644;-82
2023/01/17 04:55:58;;;;;;;4.10;2.13;;;;;;;2.48;71.01;95416.59;4975639;28;20049;-80
2023/01/17 04:58:24;;;;;;;4.53;2.80;;;;;;;2.40;71.39;95426.22;4992852;28;20125;-80
2023/01/17 05:00:50;;;;;;;4.22;2.10;;;;;;;2.38;72.02;95423.03;4992489;28;20042;-81
2023/01/17 05:03:20;;;;;;;3.05;2.53;;;;;;;2.32;72.63;95436.03;4993072;28;20112;-80
2023/01/17 05:05:47;;;;;;;3.92;2.50;;;;;;;2.29;72.48;95446.81;4993140;28;20077;-81
2023/01/17 05:08:14;;;;;;;3.20;1.73;;;;;;;2.29;72.75;95439.06;4993030;28;20030;-81
2023/01/17 05:10:39;;;;;;;6.35;1.95;;;;;;;2.25;73.13;95443.84;4992727;28;20056;-81
2023/01/17 05:13:05;;;;;;;5.63;1.92;;;;;;;2.17;73.76;95443.34;4992826;28;20038;-81
2023/01/17 05:15:31;;;;;;;3.40;2.40;;;;;;;2.18;74.00;95444.91;4992566;28;20457;-82
2023/01/17 05:17:57;;;;;;;4.95;2.60;;;;;;;2.26;74.36;95455.78;4993196;28;20070;-82
2023/01/17 05:20:25;;;;;;;4.03;2.42;;;;;;;2.21;74.09;95454.81;4992299;28;20048;-81
2023/01/17 05:22:56;;;;;;;2.72;2.30;;;;;;;2.15;74.41;95456.47;4990703;28;20108;-81
2023/01/17 05:25:28;;;;;;;3.80;2.40;;;;;;;2.14;74.79;95460.84;4991566;28;20117;-81
2023/01/17 05:27:55;;;;;;;2.95;2.63;;;;;;;2.17;75.00;95462.22;4992196;28;20093;-82
2023/01/17 05:30:21;;;;;;;4.07;2.60;;;;;;;2.14;75.16;95460.84;4992588;28;20037;-81
2023/01/17 05:32:49;;;;;;;3.10;2.38;;;;;;;2.13;75.69;95454.09;4992583;28;20046;-81
2023/01/17 05:35:31;;;;;;;3.35;2.70;;;;;;;2.03;75.69;95446.00;4991870;28;20038;-81
2023/01/17 05:37:57;;;;;;;3.83;2.58;;;;;;;1.96;76.25;95441.91;4992433;28;20042;-82
2023/01/17 05:40:30;;;;;;;4.80;2.70;;;;;;;1.98;76.31;95452.81;4991488;28;20040;-81
2023/01/17 05:42:58;;;;;;;6.20;3.03;;;;;;;1.99;76.65;95450.03;4990659;28;20038;-81
2023/01/17 05:45:27;;;;;;;5.97;3.05;;;;;;;1.98;76.73;95450.22;4991686;28;20541;-81
2023/01/17 05:47:57;;;;;;;5.65;3.80;;;;;;;2.00;76.77;95443.06;4991319;28;20053;-82
2023/01/17 05:50:32;;;;;;;5.57;2.83;;;;;;;2.01;77.08;95452.41;4991424;28;20359;-81
2023/01/17 05:53:03;;;;;;;3.75;2.70;;;;;;;2.15;78.10;95448.72;4990834;28;20548;-81
2023/01/17 05:55:30;;;;;;;5.78;2.88;;;;;;;2.15;78.35;95456.47;4991049;28;20045;-81
2023/01/17 05:57:57;;;;;;;2.17;1.98;;;;;;;2.04;79.48;95455.38;4991440;28;20070;-81
2023/01/17 06:00:23;;;;;;;3.83;2.25;;;;;;;1.97;81.45;95469.31;4990724;28;20038;-81
2023/01/17 06:02:49;;;;;;;3.20;2.25;;;;;;;1.63;83.98;95458.41;4991502;28;20030;-81
2023/01/17 06:05:15;;;;;;;4.03;3.03;;;;;;;1.64;85.85;95491.00;4991413;28;20109;-81
2023/01/17 06:07:45;;;;;;;5.22;3.47;;;;;;;1.50;86.96;95485.13;4992071;28;20042;-81
2023/01/17 06:10:16;;;;;;;6.55;3.28;;;;;;;1.47;87.45;95500.22;4991434;28;20126;-80
2023/01/17 06:12:44;;;;;;;6.47;3.10;;;;;;;1.46;88.29;95498.66;4991169;28;20046;-81
2023/01/17 06:15:11;;;;;;;5.03;4.05;;;;;;;1.32;88.21;95490.97;4990549;28;20050;-80
2023/01/17 06:17:37;;;;;;;6.00;3.28;;;;;;;1.33;88.46;95484.78;4991948;28;20070;-81
2023/01/17 06:20:05;;;;;;;3.45;2.72;;;;;;;1.34;88.20;95483.78;4991105;28;20126;-81
2023/01/17 06:22:32;;;;;;;3.83;2.38;;;;;;;1.37;87.63;95485.16;4986464;28;20044;-81
2023/01/17 06:24:58;;;;;;;5.45;2.40;;;;;;;1.44;87.42;95480.78;4988823;28;20027;-81
2023/01/17 06:27:24;;;;;;;5.53;3.15;;;;;;;1.45;87.25;95481.56;4989863;28;20137;-81
2023/01/17 06:29:49;;;;;;;3.78;3.05;;;;;;;1.45;86.35;95484.94;4991453;28;20030;-80
2023/01/17 06:32:15;;;;;;;4.78;2.53;;;;;;;1.46;84.25;95483.94;4990757;28;20101;-80
2023/01/17 06:34:40;;;;;;;2.90;2.35;;;;;;;1.48;83.77;95476.75;4973726;28;20045;-81
2023/01/17 06:37:07;;;;;;;3.45;2.50;;;;;;;1.57;83.29;95469.59;4991230;28;20037;-81
2023/01/17 06:39:32;;;;;;;2.30;1.83;;;;;;;1.52;82.76;95464.25;4984228;28;20041;-81
2023/01/17 06:41:58;;;;;;;6.03;1.98;;;;;;;1.57;81.91;95467.78;4970484;28;20046;-81
2023/01/17 06:44:25;;;;;;;1.98;1.13;;;;;;;1.57;81.31;95474.75;4990128;28;20501;-81
2023/01/17 06:46:51;;;;;;;4.35;2.58;;;;;;;1.59;81.40;95473.53;4989631;28;20045;-81
2023/01/17 06:49:17;;;;;;;2.90;2.00;;;;;;;1.61;80.71;95476.69;4989982;28;20026;-81
2023/01/17 06:51:43;;;;;;;2.95;1.83;;;;;;;1.62;80.73;95472.34;4990242;28;20034;-81
2023/01/17 06:54:09;;;;;;;3.00;2.13;;;;;;;1.69;80.54;95482.63;4989668;28;20038;-81
2023/01/17 06:56:35;;;;;;;2.80;2.30;;;;;;;1.72;80.01;95487.38;4989657;28;20113;-81
2023/01/17 06:59:01;;;;;;;5.57;2.53;;;;;;;1.74;80.32;95486.19;4990250;28;20583;-81
2023/01/17 07:01:27;;;;;;;2.33;1.95;;;;;;;1.85;80.92;95490.66;4989552;28;20042;-81
2023/01/17 07:03:53;;;;;;;2.60;1.98;;;;;;;1.88;80.57;95490.28;4989654;28;20640;-82
2023/01/17 07:06:19;;;;;;;5.10;2.60;;;;;;;1.90;80.98;95495.22;4990303;28;20031;-82
2023/01/17 07:08:46;;;;;;;5.13;2.20;;;;;;;1.92;81.26;95497.59;4989426;28;20533;-81
2023/01/17 07:11:12;;;;;;;4.25;2.53;;;;;;;1.98;81.22;95504.50;4988970;28;20105;-81
2023/01/17 07:13:38;;;;;;;4.38;2.58;;;;;;;1.97;80.89;95502.94;4990514;28;20533;-81
2023/01/17 07:16:05;;;;;;;3.58;2.13;;;;;;;1.99;81.08;95499.16;4988718;28;20061;-81
2023/01/17 07:18:32;;;;;;;3.83;2.30;;;;;;;1.96;81.13;95511.69;4989579;28;20042;-82
2023/01/17 07:20:58;;;;;;;2.65;2.00;;;;;;;1.91;81.10;95511.53;4988266;28;20037;-82
2023/01/17 07:23:24;;;;;;;2.78;1.88;;;;;;;1.91;81.06;95507.13;4985789;28;20406;-81
2023/01/17 07:25:51;;;;;;;4.13;2.40;;;;;;;1.94;81.88;95509.31;4989118;28;20053;-81
2023/01/17 07:28:17;;;;;;;4.25;2.35;;;;;;;2.08;81.57;95507.44;4989405;28;20034;-81
2023/01/17 07:30:42;;;;;;;2.67;2.22;;;;;;;2.13;81.31;95505.03;4989362;28;20038;-82
2023/01/17 07:33:08;;;;;;;2.40;2.10;;;;;;;2.23;80.47;95509.75;4987865;28;20026;-81
2023/01/17 07:35:35;;;;;;;3.53;2.42;;;;;;;2.21;79.72;95507.34;4989642;28;20121;-82
2023/01/17 07:38:02;;;;;;;4.03;2.40;;;;;;;2.26;80.08;95504.91;4989619;28;20625;-81
2023/01/17 07:40:27;;;;;;;2.92;2.08;;;;;;;2.29;79.84;95504.50;4989460;28;20039;-81
2023/01/17 07:43:00;;;;;;;3.83;2.70;;;;;;;2.36;80.00;95499.28;4987262;28;20064;-81
2023/01/17 07:45:26;;;;;;;3.45;2.33;;;;;;;2.41;79.15;95504.63;4988347;28;20121;-81
2023/01/17 07:47:55;;;;;;;3.30;2.38;;;;;;;2.51;78.48;95501.53;4988261;28;20030;-81
2023/01/17 07:50:23;;;;;;;3.38;1.98;;;;;;;2.71;77.79;95497.00;4987732;28;20065;-87
2023/01/17 07:52:51;;;;;;;2.75;2.08;;;;;;;2.80;77.39;95485.34;4972226;28;20113;-82
2023/01/17 07:55:16;;;;;;;4.00;2.30;;;;;;;2.86;76.68;95487.06;4988180;28;20038;-81
2023/01/17 07:57:42;;;;;;;3.38;2.20;;;;;;;2.94;76.30;95471.28;4989276;28;20057;-81
2023/01/17 08:00:08;;;;;;;2.28;2.05;;;;;;;2.93;75.42;95474.84;4989096;28;20509;-81
2023/01/17 08:02:33;;;;;;;2.67;1.92;;;;;;;2.81;75.27;95473.19;4988387;28;20407;-81
2023/01/17 08:04:59;;;;;;;2.28;1.88;;;;;;;2.95;75.97;95488.41;4983712;28;20106;-81
2023/01/17 08:07:24;;;;;;;2.92;2.10;;;;;;;2.95;75.42;95488.41;4988686;28;20056;-81
2023/01/17 08:09:50;;;;;;;2.65;1.88;;;;;;;3.23;75.48;95489.66;4988238;28;20042;-81
2023/01/17 08:12:16;;;;;;;3.20;2.22;;;;;;;3.45;75.49;95490.81;4988851;28;20101;-81
2023/01/17 08:14:42;;;;;;;4.53;2.63;;;;;;;3.63;74.08;95499.56;4988010;28;20482;-81
2023/01/17 08:17:14;;;;;;;2.17;1.83;;;;;;;3.55;72.60;95494.69;4987926;28;20042;-81
2023/01/17 08:19:40;;;;;;;3.85;2.65;;;;;;;3.45;72.97;95493.41;4987754;28;20049;-81
2023/01/17 08:22:07;;;;;;;3.38;2.17;;;;;;;3.64;72.73;95498.56;4986078;28;20034;-81
2023/01/17 08:24:33;;;;;;;4.75;2.55;;;;;;;3.63;73.12;95482.22;4987876;28;20045;-81
2023/01/17 08:26:58;;;;;;;3.53;2.40;;;;;;;3.87;73.21;95485.69;4988671;28;20026;-81
2023/01/17 08:29:24;;;;;;;4.35;2.85;;;;;;;4.03;73.11;95490.25;4988465;28;20113;-81
2023/01/17 08:31:50;;;;;;;4.18;2.60;;;;;;;3.74;71.75;95488.47;4987771;28;20042;-81
2023/01/17 08:34:15;;;;;;;5.32;2.72;;;;;;;3.74;73.50;95496.25;4988385;28;20038;-81
2023/01/17 08:36:42;;;;;;;4.53;2.70;;;;;;;3.55;72.37;95497.28;4969696;28;20073;-81
2023/01/17 08:39:08;;;;;;;6.00;2.88;;;;;;;3.50;72.50;95487.56;4988761;28;20066;-81
2023/01/17 08:41:34;;;;;;;6.63;3.22;;;;;;;3.56;73.36;95488.50;4988151;28;20445;-81
2023/01/17 08:44:01;;;;;;;4.68;3.20;;;;;;;3.56;73.89;95478.91;4985992;28;20060;-81
2023/01/17 08:46:27;;;;;;;5.47;2.97;;;;;;;3.26;72.47;95478.88;4987825;28;20034;-82
2023/01/17 08:48:58;;;;;;;5.28;3.22;;;;;;;3.01;73.39;95475.59;4971026;28;20034;-81
2023/01/17 08:51:26;;;;;;;6.38;3.33;;;;;;;3.08;74.23;95476.31;4988047;28;20401;-81
2023/01/17 08:53:54;;;;;;;4.30;2.63;;;;;;;3.03;74.56;95479.53;4986612;28;20042;-82
2023/01/17 08:56:20;;;;;;;6.15;3.13;;;;;;;3.07;74.09;95480.69;4988009;28;20070;-82
2023/01/17 08:58:45;;;;;;;4.00;3.05;;;;;;;3.39;75.73;95478.72;4988313;28;20097;-82
2023/01/17 09:01:11;;;;;;;5.35;3.05;;;;;;;3.64;74.31;95485.59;4988293;28;20042;-82
2023/01/17 09:03:37;;;;;;;4.85;3.03;;;;;;;3.77;72.70;95485.41;4988202;28;20045;-81
2023/01/17 09:06:14;;;;;;;5.55;3.17;;;;;;;3.78;72.30;95483.59;4988240;28;20054;-81
2023/01/17 09:08:40;;;;;;;6.65;3.25;;;;;;;3.78;71.21;95494.78;4985413;28;20038;-82
2023/01/17 09:11:12;;;;;;;3.17;2.22;;;;;;;3.64;70.45;95488.19;4988174;28;20038;-81
2023/01/17 09:13:38;;;;;;;4.97;2.90;;;;;;;3.70;71.99;95484.72;4987932;28;20038;-81
2023/01/17 09:16:05;;;;;;;6.05;2.90;;;;;;;3.43;71.66;95490.25;4986671;28;20050;-81
2023/01/17 09:18:33;;;;;;;4.30;2.92;;;;;;;3.51;71.36;95486.56;4973412;28;20125;-81
2023/01/17 09:21:11;;;;;;;6.78;2.75;;;;;;;3.73;71.35;95484.28;4978625;28;20093;-81
2023/01/17 09:23:37;;;;;;;4.57;2.90;;;;;;;3.92;71.71;95478.03;4984727;28;20046;-81
2023/01/17 09:26:02;;;;;;;4.53;2.83;;;;;;;4.14;71.65;95487.88;4987974;28;20040;-80
2023/01/17 09:28:28;;;;;;;4.60;2.97;;;;;;;4.20;70.67;95493.00;4986250;28;20039;-80
2023/01/17 09:30:53;;;;;;;3.00;2.20;;;;;;;4.17;68.79;95492.63;4970024;28;20379;-81
2023/01/17 09:33:21;;;;;;;4.65;2.63;;;;;;;4.17;69.91;95484.84;4987674;28;20069;-80
2023/01/17 09:35:47;;;;;;;4.15;2.30;;;;;;;4.28;69.53;95482.28;4968546;28;20041;-81
2023/01/17 09:38:13;;;;;;;2.63;2.22;;;;;;;4.20;68.32;95490.41;4991266;28;20038;-81
2023/01/17 09:40:46;;;;;;;3.13;1.88;;;;;;;3.99;67.73;95486.50;4991281;28;20049;-81
2023/01/17 09:43:43;;;;;;;5.30;2.20;;;;;;;3.97;68.02;95490.34;4991877;28;20037;-81
2023/01/17 09:46:24;;;;;;;4.28;2.50;;;;;;;3.75;67.88;95482.25;4991850;28;20034;-81
2023/01/17 09:49:25;;;;;;;5.32;2.42;;;;;;;3.67;69.80;95475.59;4990431;28;20126;-81
2023/01/17 09:51:53;;;;;;;3.78;2.38;;;;;;;3.70;70.02;95471.75;4989576;28;20038;-81
2023/01/17 09:54:24;;;;;;;5.00;2.40;;;;;;;3.98;70.22;95474.56;4991429;28;20532;-81
2023/01/17 09:57:14;;;;;;;4.70;2.78;;;;;;;3.78;68.57;95476.66;4990148;28;20144;-81
2023/01/17 10:00:16;;;;;;;4.90;2.75;;;;;;;3.88;70.21;95482.06;4990727;28;20042;-81
2023/01/17 10:03:14;;;;;;;3.28;2.35;;;;;;;4.23;69.74;95478.78;4990385;28;20041;-81
2023/01/17 10:05:54;;;;;;;3.65;2.40;;;;;;;4.26;68.42;95467.97;4988444;28;20042;-81
2023/01/17 10:08:54;;;;;;;3.03;2.00;;;;;;;4.01;67.04;95474.09;4990447;28;20062;-81
2023/01/17 10:11:31;;;;;;;2.92;2.22;;;;;;;4.05;68.02;95471.84;4989914;28;20382;-80
2023/01/17 10:14:41;;;;;;;5.43;2.28;;;;;;;4.11;67.46;95470.19;4990706;28;20038;-81
2023/01/17 10:17:38;;;;;;;4.55;2.60;;;;;;;4.25;67.62;95467.16;4990980;28;20065;-80
2023/01/17 10:20:52;;;;;;;3.72;2.20;;;;;;;4.35;67.08;95466.59;4991113;28;20036;-81
2023/01/17 10:24:07;;;;;;;3.83;2.03;;;;;;;4.20;67.14;95455.88;4988324;28;20034;-80
2023/01/17 10:26:37;;;;;;;4.90;2.20;;;;;;;4.57;68.87;95459.84;4984079;28;20092;-81
2023/01/17 10:29:13;;;;;;;3.08;2.33;;;;;;;4.67;67.13;95448.09;4990819;28;20026;-80
2023/01/17 10:31:54;;;;;;;5.40;2.20;;;;;;;4.61;64.99;95446.41;4989363;28;20050;-81
2023/01/17 10:34:41;;;;;;;4.68;2.30;;;;;;;4.49;63.73;95452.38;4989742;28;20034;-81
2023/01/17 10:37:42;;;;;;;6.70;2.97;;;;;;;4.48;64.51;95443.03;4989401;28;20038;-81
2023/01/17 10:40:39;;;;;;;4.25;2.38;;;;;;;4.59;65.21;95456.25;4987629;28;20113;-81
2023/01/17 10:43:18;;;;;;;5.70;2.45;;;;;;;4.77;64.99;95443.13;4990091;28;20648;-80
2023/01/17 10:45:55;;;;;;;5.53;2.20;;;;;;;5.02;63.29;95454.03;4988440;28;20026;-81
2023/01/17 10:48:44;;;;;;;5.50;2.63;;;;;;;5.32;62.20;95455.69;4988648;28;20034;-80
2023/01/17 10:51:25;;;;;;;4.10;2.30;;;;;;;5.63;60.96;95446.63;4988677;28;20038;-81
2023/01/17 10:54:17;;;;;;;3.90;1.90;;;;;;;5.57;58.98;95450.16;4989108;28;20034;-81
2023/01/17 10:56:42;;;;;;;4.03;2.63;;;;;;;6.08;61.71;95445.88;4990238;28;20623;-81
2023/01/17 10:59:27;;;;;;;5.68;2.08;;;;;;;6.12;58.48;95445.19;4989793;28;20062;-81
2023/01/17 11:01:52;;;;;;;4.85;2.42;;;;;;;5.59;55.69;95443.72;4990178;28;20066;-81
2023/01/17 11:04:32;;;;;;;3.70;2.45;;;;;;;5.40;57.70;95446.72;4990495;28;20117;-81
2023/01/17 11:07:23;;;;;;;3.45;2.42;;;;;;;5.61;59.64;95439.06;4990093;28;20057;-80
2023/01/17 11:09:55;;;;;;;5.65;2.55;;;;;;;5.56;58.86;95431.19;4989985;28;20030;-81
2023/01/17 11:12:43;;;;;;;3.70;2.33;;;;;;;5.51;57.35;95423.28;4969334;28;20037;-81
2023/01/17 11:15:24;;;;;;;5.40;2.42;;;;;;;5.61;59.77;95427.88;4990128;28;20054;-81
2023/01/17 11:18:01;;;;;;;4.80;2.22;;;;;;;5.70;57.13;95421.31;4990117;28;20073;-81
2023/01/17 11:20:34;;;;;;;4.93;2.70;;;;;;;5.76;58.02;95414.38;4989811;28;20034;-81
2023/01/17 11:23:19;;;;;;;3.35;2.13;;;;;;;6.05;57.82;95413.31;4988164;28;20117;-81
2023/01/17 11:25:59;;;;;;;3.88;2.35;;;;;;;6.22;57.16;95402.91;4971929;28;20057;-81
2023/01/17 11:28:32;;;;;;;6.30;2.58;;;;;;;6.26;57.02;95403.22;4988033;28;20034;-80
2023/01/17 11:31:00;;;;;;;3.42;2.40;;;;;;;6.28;56.56;95381.13;4988162;28;20042;-81
2023/01/17 11:33:44;;;;;;;6.90;2.35;;;;;;;5.74;54.72;95380.00;4987562;28;20088;-81
2023/01/17 11:36:27;;;;;;;3.40;2.38;;;;;;;5.17;55.92;95386.03;4970835;28;20655;-80
2023/01/17 11:39:01;;;;;;;3.78;2.25;;;;;;;5.09;59.08;95378.56;4988037;28;20034;-80
2023/01/17 11:41:40;;;;;;;5.10;2.33;;;;;;;5.16;59.50;95378.44;4987505;28;20033;-80
2023/01/17 11:44:30;;;;;;;4.45;2.55;;;;;;;5.11;56.97;95371.34;4986762;28;20117;-81
2023/01/17 11:47:11;;;;;;;3.50;2.10;;;;;;;5.45;58.70;95361.81;4985683;28;20030;-80
2023/01/17 11:49:39;;;;;;;3.05;2.00;;;;;;;5.52;57.70;95357.28;4985468;28;20816;-81
2023/01/17 11:52:37;;;;;;;4.18;2.30;;;;;;;5.81;56.85;95362.41;4987536;28;20112;-81
2023/01/17 11:55:05;;;;;;;3.67;2.10;;;;;;;5.96;57.28;95359.31;4944112;28;20073;-81
2023/01/17 11:57:34;;;;;;;3.70;2.20;;;;;;;6.08;56.54;95353.00;4985722;28;20477;-80
2023/01/17 12:00:24;;;;;;;3.17;2.20;;;;;;;6.20;55.99;95347.69;4985841;28;20065;-81
2023/01/17 12:03:14;;;;;;;5.50;2.20;;;;;;;6.35;55.42;95341.91;4987192;28;20038;-80
2023/01/17 12:05:56;;;;;;;2.97;2.33;;;;;;;6.36;55.11;95339.09;4987653;28;20116;-80
2023/01/17 12:08:59;;;;;;;2.85;2.20;;;;;;;6.31;55.19;95333.81;4986829;28;20086;-81
2023/01/17 12:15:06;;;;;;;7.10;2.58;;;;;;;5.88;56.05;95340.44;4988864;28;20054;-81
2023/01/17 12:17:55;;;;;;;3.78;2.25;;;;;;;5.73;57.03;95347.22;4958713;28;20060;-80
2023/01/17 12:20:50;;;;;;;3.25;1.95;;;;;;;5.94;55.69;95349.16;4986961;28;20129;-81
2023/01/17 12:23:40;;;;;;;2.90;2.17;;;;;;;6.10;53.09;95343.13;4986163;28;20113;-81
2023/01/17 12:26:33;;;;;;;5.38;2.13;;;;;;;5.98;52.48;95339.03;4987905;28;20501;-80
2023/01/17 12:29:29;;;;;;;2.97;2.10;;;;;;;5.62;48.99;95341.84;4988878;28;20034;-81
2023/01/17 12:32:22;;;;;;;2.20;1.90;;;;;;;5.71;50.41;95349.28;4988222;28;20042;-81
2023/01/17 12:35:10;;;;;;;3.10;2.10;;;;;;;6.03;50.15;95341.72;4987943;28;20048;-81
2023/01/17 12:37:42;;;;;;;3.95;1.85;;;;;;;6.29;49.41;95341.06;4987986;28;20048;-81
2023/01/17 12:40:35;;;;;;;3.42;2.05;;;;;;;6.64;50.71;95348.56;4988417;28;20541;-81
2023/01/17 12:43:24;;;;;;;3.13;1.75;;;;;;;6.70;48.67;95344.97;4987195;28;20042;-81
2023/01/17 12:45:53;;;;;;;2.25;1.90;;;;;;;6.32;47.59;95334.59;4987274;28;20482;-81
2023/01/17 12:48:21;;;;;;;2.75;2.20;;;;;;;6.39;49.27;95327.41;4987737;28;20639;-81
2023/01/17 12:51:02;;;;;;;2.42;1.95;;;;;;;6.24;49.68;95327.19;4988332;28;20548;-81
2023/01/17 12:53:41;;;;;;;3.67;2.22;;;;;;;6.39;51.01;95324.78;4988448;28;20061;-81
2023/01/17 12:56:26;;;;;;;4.03;2.10;;;;;;;6.32;48.95;95318.97;4986539;28;20041;-81
2023/01/17 12:59:24;;;;;;;3.92;1.95;;;;;;;6.12;50.46;95309.09;4986630;28;20427;-81
2023/01/17 13:01:56;;;;;;;2.78;1.77;;;;;;;6.01;49.07;95302.94;4988005;28;20101;-80
2023/01/17 13:04:37;;;;;;;3.05;2.28;;;;;;;5.90;48.76;95295.97;4987050;28;20490;-80
2023/01/17 13:07:41;;;;;;;5.03;2.83;;;;;;;5.69;49.45;95294.09;4985889;28;20026;-81
2023/01/17 13:10:06;;;;;;;2.88;1.88;;;;;;;5.73;48.52;95290.00;4990017;28;20049;-81
2023/01/17 13:12:36;;;;;;;5.72;2.35;;;;;;;5.68;48.32;95292.53;4991913;28;20514;-81
2023/01/17 13:15:12;;;;;;;3.20;2.07;;;;;;;5.69;47.29;95299.28;4990036;28;20046;-81
2023/01/17 13:17:49;;;;;;;2.85;1.95;;;;;;;5.73;46.96;95305.59;4988317;28;20388;-82
2023/01/17 13:20:42;;;;;;;3.53;2.17;;;;;;;5.68;46.90;95313.31;4990253;28;20049;-81
2023/01/17 13:23:38;;;;;;;2.90;2.00;;;;;;;5.65;47.12;95299.00;4988086;28;20084;-81
2023/01/17 13:26:19;;;;;;;3.30;1.98;;;;;;;5.78;48.32;95288.28;4990744;28;20088;-80
2023/01/17 13:29:21;;;;;;;1.85;1.60;;;;;;;6.03;48.86;95290.47;4990123;28;20113;-81
2023/01/17 13:32:13;;;;;;;2.45;1.67;;;;;;;6.16;48.77;95287.53;4971322;28;20046;-81
2023/01/17 13:34:57;;;;;;;3.13;1.80;;;;;;;6.53;47.59;95288.78;4990737;28;20101;-81
2023/01/17 13:37:50;;;;;;;2.80;1.67;;;;;;;6.78;47.82;95277.84;4981751;28;20149;-81